createdAt,value
2018-03-28T00:01:06.516Z,0.00
2018-03-28T00:02:06.759Z,0.00
2018-03-28T00:03:07.173Z,0.00
2018-03-28T00:04:06.463Z,0.00
2018-03-28T00:05:06.853Z,0.00
2018-03-28T00:06:07.528Z,0.00
2018-03-28T00:07:06.986Z,0.00
2018-03-28T00:08:06.585Z,0.00
2018-03-28T00:09:07.106Z,0.00
2018-03-28T00:10:07.572Z,0.00
2018-03-28T00:11:07.396Z,0.00
2018-03-28T00:12:06.714Z,0.00
2018-03-28T00:13:06.986Z,0.00
2018-03-28T00:14:07.056Z,0.00
2018-03-28T00:15:06.686Z,0.00
2018-03-28T00:16:07.443Z,0.00
2018-03-28T00:17:06.853Z,0.00
2018-03-28T00:18:07.209Z,0.00
2018-03-28T00:19:28.006Z,0.00
2018-03-28T00:20:28.321Z,0.00
2018-03-28T00:21:28.834Z,0.00
2018-03-28T00:22:48.666Z,0.00
2018-03-28T00:23:49.137Z,0.00
2018-03-28T00:24:50.147Z,0.00
2018-03-28T00:25:49.358Z,0.00
2018-03-28T00:26:48.777Z,0.00
2018-03-28T00:27:49.663Z,0.00
2018-03-28T00:28:49.286Z,0.00
2018-03-28T00:29:49.981Z,0.00
2018-03-28T00:39:37.241Z,0.00
2018-03-28T00:40:37.367Z,0.00
2018-03-28T00:41:37.458Z,0.00
2018-03-28T00:42:37.579Z,0.00
2018-03-28T00:43:37.485Z,0.00
2018-03-28T00:44:37.632Z,0.00
2018-03-28T00:45:37.712Z,0.00
2018-03-28T00:46:37.538Z,0.00
2018-03-28T00:47:37.527Z,0.00
2018-03-28T00:48:37.459Z,0.00
2018-03-28T00:49:37.472Z,0.00
2018-03-28T00:50:37.445Z,0.00
2018-03-28T00:51:37.421Z,0.00
2018-03-28T00:52:58.055Z,0.00
2018-03-28T00:53:59.094Z,0.00
2018-03-28T00:54:59.121Z,0.00
2018-03-28T00:55:59.112Z,0.00
2018-03-28T00:56:59.013Z,0.00
2018-03-28T00:57:58.919Z,0.00
2018-03-28T00:58:58.895Z,0.00
2018-03-28T00:59:59.110Z,0.00
2018-03-28T01:00:59.047Z,0.00
2018-03-28T01:01:58.817Z,0.00
2018-03-28T01:03:19.081Z,0.00
2018-03-28T01:04:19.963Z,0.00
2018-03-28T01:05:40.296Z,0.00
2018-03-28T01:06:41.158Z,0.00
2018-03-28T01:07:41.252Z,0.00
2018-03-28T01:08:41.192Z,0.00
2018-03-28T01:09:41.274Z,0.00
2018-03-28T01:10:41.402Z,0.00
2018-03-28T01:12:01.356Z,0.00
2018-03-28T01:13:01.363Z,0.00
2018-03-28T01:14:01.529Z,0.00
2018-03-28T01:15:01.574Z,0.00
2018-03-28T01:16:01.480Z,0.00
2018-03-28T01:17:01.387Z,0.00
2018-03-28T01:18:01.564Z,0.00
2018-03-28T01:19:01.604Z,0.00
2018-03-28T01:20:01.666Z,0.00
2018-03-28T01:21:01.618Z,0.00
2018-03-28T01:22:01.665Z,0.00
2018-03-28T01:23:01.602Z,0.00
2018-03-28T01:24:01.724Z,0.00
2018-03-28T01:25:01.756Z,0.00
2018-03-28T01:26:01.843Z,0.00
2018-03-28T01:27:42.085Z,0.00
2018-03-28T01:28:42.060Z,0.00
2018-03-28T01:29:42.946Z,0.00
2018-03-28T01:30:42.129Z,0.00
2018-03-28T01:32:01.924Z,0.00
2018-03-28T01:33:02.776Z,0.00
2018-03-28T01:34:23.671Z,0.00
2018-03-28T01:35:23.552Z,0.00
2018-03-28T01:36:24.405Z,0.00
2018-03-28T01:37:24.321Z,0.00
2018-03-28T01:38:24.170Z,0.00
2018-03-28T01:44:34.589Z,0.00
2018-03-28T01:45:56.230Z,0.00
2018-03-28T01:46:56.979Z,0.00
2018-03-28T01:48:20.158Z,0.00
2018-03-28T01:49:42.153Z,0.00
2018-03-28T01:50:42.615Z,0.00
2018-03-28T01:51:42.519Z,0.00
2018-03-28T01:52:42.347Z,0.00
2018-03-28T01:53:42.647Z,0.00
2018-03-28T01:54:42.610Z,0.00
2018-03-28T01:55:42.029Z,0.00
2018-03-28T01:56:42.477Z,0.00
2018-03-28T01:57:42.725Z,0.00
2018-03-28T01:58:42.431Z,0.00
2018-03-28T01:59:43.248Z,0.00
2018-03-28T02:00:42.897Z,0.00
2018-03-28T02:01:42.485Z,0.00
2018-03-28T02:03:24.946Z,0.00
2018-03-28T02:04:25.163Z,0.00
2018-03-28T02:05:24.795Z,0.00
2018-03-28T02:06:25.597Z,0.00
2018-03-28T02:07:25.774Z,0.00
2018-03-28T02:08:25.199Z,0.00
2018-03-28T02:10:06.571Z,0.00
2018-03-28T02:11:07.408Z,0.00
2018-03-28T02:12:07.439Z,0.00
2018-03-28T02:13:07.326Z,0.00
2018-03-28T02:14:26.759Z,0.00
2018-03-28T02:15:27.353Z,0.00
2018-03-28T02:16:27.871Z,0.00
2018-03-28T02:17:27.249Z,0.00
2018-03-28T02:18:27.883Z,0.00
2018-03-28T02:19:27.258Z,0.00
2018-03-28T02:20:27.656Z,0.00
2018-03-28T02:21:27.456Z,0.00
2018-03-28T02:22:28.133Z,0.00
2018-03-28T02:23:48.062Z,0.00
2018-03-28T02:24:48.580Z,0.00
2018-03-28T02:25:48.128Z,0.00
2018-03-28T02:26:49.042Z,0.00
2018-03-28T02:27:48.452Z,0.00
2018-03-28T02:28:49.263Z,0.00
2018-03-28T02:29:48.701Z,0.00
2018-03-28T02:30:48.212Z,0.00
2018-03-28T02:31:48.660Z,0.00
2018-03-28T02:32:48.192Z,0.00
2018-03-28T02:33:48.541Z,0.00
2018-03-28T02:34:48.908Z,0.00
2018-03-28T02:35:48.248Z,0.00
2018-03-28T02:36:48.904Z,0.00
2018-03-28T02:37:48.569Z,0.00
2018-03-28T02:38:49.333Z,0.00
2018-03-28T02:39:49.108Z,0.00
2018-03-28T02:41:09.848Z,0.00
2018-03-28T02:42:10.369Z,0.00
2018-03-28T02:43:10.758Z,0.00
2018-03-28T02:44:10.040Z,0.00
2018-03-28T02:45:31.254Z,0.00
2018-03-28T02:46:31.557Z,0.00
2018-03-28T02:47:52.711Z,0.00
2018-03-28T02:50:15.709Z,0.00
2018-03-28T02:51:16.391Z,0.00
2018-03-28T02:52:16.867Z,0.00
2018-03-28T02:53:16.201Z,0.00
2018-03-28T02:54:15.795Z,0.00
2018-03-28T02:55:16.377Z,0.00
2018-03-28T02:56:16.184Z,0.00
2018-03-28T02:57:16.938Z,0.00
2018-03-28T02:58:16.610Z,0.00
2018-03-28T02:59:16.399Z,0.00
2018-03-28T03:00:15.999Z,0.00
2018-03-28T03:01:16.430Z,0.00
2018-03-28T03:02:16.237Z,0.00
2018-03-28T03:03:17.017Z,0.00
2018-03-28T03:04:16.575Z,0.00
2018-03-28T03:05:37.437Z,0.00
2018-03-28T03:06:38.288Z,0.00
2018-03-28T03:07:37.818Z,0.00
2018-03-28T03:08:58.700Z,0.00
2018-03-28T03:09:59.365Z,0.00
2018-03-28T03:10:58.724Z,0.00
2018-03-28T03:11:59.516Z,0.00
2018-03-28T03:12:59.429Z,0.00
2018-03-28T03:14:20.081Z,0.00
2018-03-28T03:15:20.732Z,0.00
2018-03-28T03:16:20.347Z,0.00
2018-03-28T03:17:21.080Z,0.00
2018-03-28T03:18:20.586Z,0.00
2018-03-28T03:19:20.302Z,0.00
2018-03-28T03:20:21.118Z,0.00
2018-03-28T03:21:20.686Z,0.00
2018-03-28T03:22:20.249Z,0.00
2018-03-28T03:23:20.889Z,0.00
2018-03-28T03:24:20.537Z,0.00
2018-03-28T03:25:20.118Z,0.00
2018-03-28T03:26:20.759Z,0.00
2018-03-28T03:27:20.467Z,0.00
2018-03-28T03:28:20.872Z,0.00
2018-03-28T03:29:20.389Z,0.00
2018-03-28T03:31:03.785Z,0.00
2018-03-28T03:32:45.679Z,0.00
2018-03-28T03:33:46.339Z,0.00
2018-03-28T03:34:45.857Z,0.00
2018-03-28T03:35:46.173Z,0.00
2018-03-28T03:36:46.449Z,0.00
2018-03-28T03:38:07.040Z,0.00
2018-03-28T03:39:07.452Z,0.00
2018-03-28T03:40:08.105Z,0.00
2018-03-28T03:41:07.565Z,0.00
2018-03-28T03:42:07.953Z,0.00
2018-03-28T03:43:07.178Z,0.00
2018-03-28T03:44:07.738Z,0.00
2018-03-28T03:45:28.042Z,0.00
2018-03-28T03:46:50.844Z,0.00
2018-03-28T03:47:51.022Z,0.00
2018-03-28T03:49:11.062Z,0.00
2018-03-28T03:50:31.956Z,0.00
2018-03-28T03:51:32.661Z,0.00
2018-03-28T03:52:32.101Z,0.00
2018-03-28T03:53:32.544Z,0.00
2018-03-28T03:54:32.951Z,0.00
2018-03-28T03:55:32.755Z,0.00
2018-03-28T03:56:32.658Z,0.00
2018-03-28T03:57:33.104Z,0.00
2018-03-28T03:58:32.782Z,0.00
2018-03-28T03:59:32.001Z,0.00
2018-03-28T04:00:32.283Z,0.00
2018-03-28T04:01:32.821Z,0.00
2018-03-28T04:02:32.855Z,0.00
2018-03-28T04:03:53.149Z,0.00
2018-03-28T04:04:53.823Z,0.00
2018-03-28T04:05:53.291Z,0.00
2018-03-28T04:06:53.890Z,0.00
2018-03-28T04:07:53.703Z,0.00
2018-03-28T04:08:53.664Z,0.00
2018-03-28T04:09:53.409Z,0.00
2018-03-28T04:10:53.798Z,0.00
2018-03-28T04:11:53.233Z,0.00
2018-03-28T04:12:53.636Z,0.00
2018-03-28T04:14:14.018Z,0.00
2018-03-28T04:15:14.810Z,0.00
2018-03-28T04:16:14.395Z,0.00
2018-03-28T04:17:14.640Z,0.00
2018-03-28T04:18:14.484Z,0.00
2018-03-28T04:20:00.753Z,0.00
2018-03-28T04:21:01.126Z,0.00
2018-03-28T04:22:22.823Z,0.00
2018-03-28T04:23:22.192Z,0.00
2018-03-28T04:24:42.790Z,0.00
2018-03-28T04:25:43.356Z,0.00
2018-03-28T04:26:43.112Z,0.00
2018-03-28T04:27:43.964Z,0.00
2018-03-28T04:28:43.163Z,0.00
2018-03-28T04:29:43.821Z,0.00
2018-03-28T04:30:43.551Z,0.00
2018-03-28T04:31:43.074Z,0.00
2018-03-28T04:32:43.456Z,0.00
2018-03-28T04:34:03.995Z,0.00
2018-03-28T04:35:04.528Z,1.00
2018-03-28T04:36:25.217Z,1.00
2018-03-28T04:37:25.792Z,0.00
2018-03-28T04:38:25.176Z,0.00
2018-03-28T04:39:25.862Z,1.00
2018-03-28T04:40:25.046Z,1.00
2018-03-28T04:41:25.426Z,1.00
2018-03-28T04:42:24.841Z,2.00
2018-03-28T04:43:25.238Z,1.00
2018-03-28T04:44:25.985Z,2.00
2018-03-28T04:45:46.029Z,3.00
2018-03-28T04:46:46.881Z,3.00
2018-03-28T04:48:07.076Z,4.00
2018-03-28T04:49:07.719Z,5.00
2018-03-28T04:50:08.116Z,5.00
2018-03-28T04:51:29.254Z,6.00
2018-03-28T04:52:30.011Z,8.00
2018-03-28T04:53:50.007Z,8.00
2018-03-28T04:54:50.759Z,10.00
2018-03-28T04:55:51.479Z,11.00
2018-03-28T04:56:51.310Z,12.00
2018-03-28T04:57:51.305Z,14.00
2018-03-28T04:58:51.236Z,15.00
2018-03-28T04:59:51.056Z,15.00
2018-03-28T05:00:51.108Z,16.00
2018-03-28T05:01:51.106Z,18.00
2018-03-28T05:02:54.384Z,19.00
2018-03-28T05:04:05.047Z,19.00
2018-03-28T05:04:56.322Z,21.00
2018-03-28T05:06:08.243Z,22.00
2018-03-28T05:06:57.506Z,25.00
2018-03-28T05:07:59.981Z,28.00
2018-03-28T05:09:20.287Z,32.00
2018-03-28T05:10:31.556Z,37.00
2018-03-28T05:11:22.169Z,41.00
2018-03-28T05:13:03.648Z,45.00
2018-03-28T05:14:25.470Z,52.00
2018-03-28T05:15:56.166Z,60.00
2018-03-28T05:16:57.279Z,65.00
2018-03-28T05:17:57.243Z,74.00
2018-03-28T05:18:58.047Z,84.00
2018-03-28T05:20:21.257Z,100.00
2018-03-28T05:21:27.373Z,109.00
2018-03-28T05:22:22.090Z,119.00
2018-03-28T05:23:21.698Z,128.00
2018-03-28T05:24:22.180Z,137.00
2018-03-28T05:25:21.941Z,143.00
2018-03-28T05:26:21.968Z,147.00
2018-03-28T05:27:21.863Z,147.00
2018-03-28T05:28:21.495Z,143.00
2018-03-28T05:29:21.082Z,143.00
2018-03-28T05:30:42.175Z,148.00
2018-03-28T05:31:42.577Z,157.00
2018-03-28T05:32:42.373Z,168.00
2018-03-28T05:34:23.923Z,192.00
2018-03-28T05:35:24.546Z,212.00
2018-03-28T05:36:28.688Z,228.00
2018-03-28T05:37:24.146Z,238.00
2018-03-28T05:38:28.223Z,242.00
2018-03-28T05:39:25.275Z,242.00
2018-03-28T05:40:24.967Z,244.00
2018-03-28T05:41:24.720Z,253.00
2018-03-28T05:42:24.511Z,282.00
2018-03-28T05:43:24.325Z,323.00
2018-03-28T05:44:24.218Z,380.00
2018-03-28T05:45:24.822Z,465.00
2018-03-28T05:46:24.529Z,609.00
2018-03-28T05:47:24.881Z,823.00
2018-03-28T05:48:24.572Z,1030.00
2018-03-28T05:49:45.435Z,1083.00
2018-03-28T05:51:26.957Z,1131.00
2018-03-28T05:52:27.417Z,1106.00
2018-03-28T05:53:49.357Z,969.00
2018-03-28T05:54:50.436Z,883.00
2018-03-28T05:55:49.946Z,875.00
2018-03-28T05:56:49.377Z,961.00
2018-03-28T05:57:50.010Z,1101.00
2018-03-28T05:58:49.831Z,1258.00
2018-03-28T06:00:30.781Z,1583.00
2018-03-28T06:01:31.429Z,1791.00
2018-03-28T06:02:31.322Z,1967.00
2018-03-28T06:03:31.085Z,2056.00
2018-03-28T06:04:32.009Z,1989.00
2018-03-28T06:05:52.495Z,1868.00
2018-03-28T06:06:53.430Z,1865.00
2018-03-28T06:07:52.743Z,1859.00
2018-03-28T06:08:52.616Z,1780.00
2018-03-28T06:09:53.632Z,1623.00
2018-03-28T06:10:53.029Z,1484.00
2018-03-28T06:11:52.928Z,1455.00
2018-03-28T06:12:52.546Z,1557.00
2018-03-28T06:13:53.028Z,1757.00
2018-03-28T06:15:12.749Z,2064.00
2018-03-28T06:16:13.245Z,2197.00
2018-03-28T06:17:14.367Z,2187.00
2018-03-28T06:18:13.379Z,2126.00
2018-03-28T06:19:34.668Z,2104.00
2018-03-28T06:20:34.386Z,2081.00
2018-03-28T06:21:56.264Z,1899.00
2018-03-28T06:22:56.748Z,1804.00
2018-03-28T06:23:56.393Z,1775.00
2018-03-28T06:24:56.930Z,1730.00
2018-03-28T06:25:56.997Z,1746.00
2018-03-28T06:26:56.541Z,1881.00
2018-03-28T06:27:56.023Z,2056.00
2018-03-28T06:28:56.715Z,2180.00
2018-03-28T06:29:56.229Z,2248.00
2018-03-28T06:31:18.264Z,2344.00
2018-03-28T06:32:19.235Z,2411.00
2018-03-28T06:33:18.920Z,2523.00
2018-03-28T06:34:18.673Z,2688.00
2018-03-28T06:35:38.735Z,2863.00
2018-03-28T06:36:39.455Z,2957.00
2018-03-28T06:37:38.906Z,3035.00
2018-03-28T06:38:39.806Z,2962.00
2018-03-28T06:39:39.640Z,2793.00
2018-03-28T06:40:39.478Z,2715.00
2018-03-28T06:42:01.043Z,2640.00
2018-03-28T06:44:20.181Z,2526.00
2018-03-28T06:45:01.672Z,2320.00
2018-03-28T06:46:01.969Z,2338.00
2018-03-28T06:47:01.525Z,2411.00
2018-03-28T06:48:02.258Z,2468.00
2018-03-28T06:49:01.830Z,2601.00
2018-03-28T06:50:01.838Z,2753.00
2018-03-28T06:51:01.637Z,2901.00
2018-03-28T06:52:02.287Z,2930.00
2018-03-28T06:53:02.061Z,2823.00
2018-03-28T06:54:01.836Z,2642.00
2018-03-28T06:55:01.501Z,2584.00
2018-03-28T06:56:01.412Z,2602.00
2018-03-28T06:57:01.919Z,2582.00
2018-03-28T06:58:22.925Z,2688.00
2018-03-28T06:59:23.405Z,2821.00
2018-03-28T07:00:24.128Z,2956.00
2018-03-28T07:01:23.682Z,3093.00
2018-03-28T07:02:23.769Z,3089.00
2018-03-28T07:03:23.248Z,2948.00
2018-03-28T07:04:24.165Z,2770.00
2018-03-28T07:05:23.982Z,2639.00
2018-03-28T07:06:23.509Z,2617.00
2018-03-28T07:07:24.229Z,2687.00
2018-03-28T07:08:23.969Z,2787.00
2018-03-28T07:09:23.835Z,2862.00
2018-03-28T07:10:53.318Z,2860.00
2018-03-28T07:11:54.247Z,3059.00
2018-03-28T07:12:54.050Z,3339.00
2018-03-28T07:14:15.569Z,3387.00
2018-03-28T07:15:16.450Z,3386.00
2018-03-28T07:16:16.231Z,3814.00
2018-03-28T07:17:15.755Z,4251.00
2018-03-28T07:18:15.453Z,4636.00
2018-03-28T07:19:37.508Z,4828.00
2018-03-28T07:20:38.018Z,4635.00
2018-03-28T07:21:37.675Z,4191.00
2018-03-28T07:22:38.386Z,3807.00
2018-03-28T07:23:59.072Z,3771.00
2018-03-28T07:25:21.319Z,4434.00
2018-03-28T07:26:22.204Z,5036.00
2018-03-28T07:27:22.119Z,6217.00
2018-03-28T07:28:22.013Z,7319.00
2018-03-28T07:29:21.771Z,7187.00
2018-03-28T07:30:42.965Z,7203.00
2018-03-28T07:31:43.837Z,5530.00
2018-03-28T07:32:43.763Z,4614.00
2018-03-28T07:33:43.683Z,4822.00
2018-03-28T07:34:43.526Z,5680.00
2018-03-28T07:35:43.298Z,5736.00
2018-03-28T07:36:44.001Z,4969.00
2018-03-28T07:37:43.898Z,3877.00
2018-03-28T07:38:43.665Z,3526.00
2018-03-28T07:40:03.969Z,3636.00
2018-03-28T07:41:45.621Z,3444.00
2018-03-28T07:42:46.215Z,3281.00
2018-03-28T07:43:46.022Z,4338.00
2018-03-28T07:45:07.178Z,5360.00
2018-03-28T07:46:07.888Z,6722.00
2018-03-28T07:47:07.695Z,7307.00
2018-03-28T07:48:07.470Z,6656.00
2018-03-28T07:49:08.006Z,7718.00
2018-03-28T07:50:07.536Z,9669.00
2018-03-28T07:51:50.655Z,10819.00
2018-03-28T07:52:34.948Z,12666.00
2018-03-28T07:53:33.770Z,14068.00
2018-03-28T07:54:29.109Z,13911.00
2018-03-28T07:55:27.768Z,14086.00
2018-03-28T07:56:28.052Z,15626.00
2018-03-28T07:57:49.180Z,15193.00
2018-03-28T07:58:50.797Z,15045.00
2018-03-28T08:00:10.777Z,14700.00
2018-03-28T08:01:11.347Z,14698.00
2018-03-28T08:02:11.456Z,14656.00
2018-03-28T08:03:32.846Z,15564.00
2018-03-28T08:04:33.907Z,15922.00
2018-03-28T08:05:33.030Z,16386.00
2018-03-28T08:07:15.707Z,16224.00
2018-03-28T08:08:17.137Z,14722.00
2018-03-28T08:09:37.484Z,12015.00
2018-03-28T08:10:38.431Z,10812.00
2018-03-28T08:11:38.366Z,11073.00
2018-03-28T08:12:39.029Z,11629.00
2018-03-28T08:13:37.999Z,11245.00
2018-03-28T08:14:37.537Z,9022.00
2018-03-28T08:15:38.271Z,9015.00
2018-03-28T08:16:37.765Z,10184.00
2018-03-28T08:17:37.808Z,10859.00
2018-03-28T08:18:37.639Z,9571.00
2018-03-28T08:19:37.607Z,9104.00
2018-03-28T08:20:39.220Z,8241.00
2018-03-28T08:21:39.081Z,8227.00
2018-03-28T08:22:37.697Z,7211.00
2018-03-28T08:23:40.599Z,7349.00
2018-03-28T08:24:39.071Z,7477.00
2018-03-28T08:25:38.576Z,8896.00
2018-03-28T08:26:39.798Z,12881.00
2018-03-28T08:27:38.694Z,16084.00
2018-03-28T08:28:39.422Z,19152.00
2018-03-28T08:29:39.443Z,20536.00
2018-03-28T08:30:39.567Z,19168.00
2018-03-28T08:31:37.531Z,14673.00
2018-03-28T08:32:40.697Z,11209.00
2018-03-28T08:33:37.679Z,10249.00
2018-03-28T08:34:39.493Z,10887.00
2018-03-28T08:35:39.216Z,12067.00
2018-03-28T08:36:39.295Z,11995.00
2018-03-28T08:37:38.040Z,10706.00
2018-03-28T08:38:37.976Z,9050.00
2018-03-28T08:39:38.233Z,8135.00
2018-03-28T08:40:38.097Z,7798.00
2018-03-28T08:41:37.846Z,6891.00
2018-03-28T08:42:37.513Z,5658.00
2018-03-28T08:43:38.463Z,6105.00
2018-03-28T08:44:38.162Z,6173.00
2018-03-28T08:45:38.192Z,6015.00
2018-03-28T08:46:37.928Z,5645.00
2018-03-28T08:47:37.345Z,5233.00
2018-03-28T08:48:39.596Z,4967.00
2018-03-28T08:49:38.422Z,4865.00
2018-03-28T08:50:39.701Z,4623.00
2018-03-28T08:51:38.890Z,4214.00
2018-03-28T08:52:39.655Z,4580.00
2018-03-28T08:53:39.456Z,6027.00
2018-03-28T08:54:40.948Z,6686.00
2018-03-28T08:55:38.215Z,6320.00
2018-03-28T08:56:37.650Z,6386.00
2018-03-28T08:57:38.995Z,5685.00
2018-03-28T08:58:38.557Z,8338.00
2018-03-28T08:59:40.757Z,6683.00
2018-03-28T09:00:40.058Z,5430.00
2018-03-28T09:01:39.107Z,5093.00
2018-03-28T09:02:39.037Z,5195.00
2018-03-28T09:03:39.110Z,5040.00
2018-03-28T09:04:37.625Z,6157.00
2018-03-28T09:05:38.086Z,6861.00
2018-03-28T09:06:38.312Z,7912.00
2018-03-28T09:07:59.911Z,9699.00
2018-03-28T09:09:00.684Z,6795.00
2018-03-28T09:10:00.464Z,10137.00
2018-03-28T09:11:00.219Z,8487.00
2018-03-28T09:12:00.220Z,9437.00
2018-03-28T09:12:59.873Z,11273.00
2018-03-28T09:14:00.552Z,10818.00
2018-03-28T09:15:42.136Z,15522.00
2018-03-28T09:16:42.779Z,18136.00
2018-03-28T09:18:23.749Z,19616.00
2018-03-28T09:19:23.506Z,24104.00
2018-03-28T09:20:24.553Z,27168.00
2018-03-28T09:21:24.540Z,30264.00
2018-03-28T09:22:24.806Z,42080.00
2018-03-28T09:23:46.415Z,38200.00
2018-03-28T09:24:47.465Z,43320.00
2018-03-28T09:25:47.472Z,43392.00
2018-03-28T09:26:46.525Z,52848.00
2018-03-28T09:27:46.070Z,65535.00
2018-03-28T09:29:08.536Z,44128.00
2018-03-28T09:30:51.531Z,36616.00
2018-03-28T09:31:51.344Z,37288.00
2018-03-28T09:32:51.202Z,44960.00
2018-03-28T09:33:51.891Z,32816.00
2018-03-28T09:34:51.896Z,27120.00
2018-03-28T09:35:51.485Z,23144.00
2018-03-28T09:36:52.188Z,25960.00
2018-03-28T09:37:51.741Z,33080.00
2018-03-28T09:38:51.954Z,39064.00
2018-03-28T09:39:51.710Z,35128.00
2018-03-28T09:40:51.451Z,40264.00
2018-03-28T09:41:51.408Z,37048.00
2018-03-28T09:42:52.187Z,33880.00
2018-03-28T09:43:52.248Z,48032.00
2018-03-28T09:44:51.783Z,35648.00
2018-03-28T09:45:51.530Z,42208.00
2018-03-28T09:46:51.188Z,36816.00
2018-03-28T09:47:51.826Z,27064.00
2018-03-28T09:49:12.445Z,23848.00
2018-03-28T09:50:12.490Z,30096.00
2018-03-28T09:51:33.744Z,35672.00
2018-03-28T09:52:33.455Z,31416.00
2018-03-28T09:53:34.540Z,26792.00
2018-03-28T09:54:34.794Z,23432.00
2018-03-28T09:55:33.760Z,26616.00
2018-03-28T09:56:33.734Z,29336.00
2018-03-28T09:57:55.422Z,27880.00
2018-03-28T09:58:56.671Z,25568.00
2018-03-28T09:59:55.550Z,22632.00
2018-03-28T10:01:16.350Z,15456.00
2018-03-28T10:02:17.171Z,10865.00
2018-03-28T10:03:17.237Z,8470.00
2018-03-28T10:04:41.075Z,7006.00
2018-03-28T10:05:39.065Z,6493.00
2018-03-28T10:06:38.712Z,6130.00
2018-03-28T10:07:38.835Z,5954.00
2018-03-28T10:08:38.495Z,6527.00
2018-03-28T10:09:39.123Z,7781.00
2018-03-28T10:10:59.361Z,8734.00
2018-03-28T10:12:00.509Z,9003.00
2018-03-28T10:13:00.510Z,9331.00
2018-03-28T10:14:22.906Z,10265.00
2018-03-28T10:15:44.720Z,10984.00
2018-03-28T10:16:44.529Z,11650.00
2018-03-28T10:18:08.480Z,12438.00
2018-03-28T10:19:10.007Z,12821.00
2018-03-28T10:20:06.133Z,13198.00
2018-03-28T10:21:27.411Z,13731.00
2018-03-28T10:22:27.240Z,14099.00
2018-03-28T10:23:28.462Z,14423.00
2018-03-28T10:25:10.739Z,14581.00
2018-03-28T10:26:12.401Z,14369.00
2018-03-28T10:27:34.675Z,14135.00
2018-03-28T10:28:36.095Z,14351.00
2018-03-28T10:29:37.054Z,14790.00
2018-03-28T10:30:35.058Z,15748.00
2018-03-28T10:31:34.872Z,17152.00
2018-03-28T10:32:35.994Z,18232.00
2018-03-28T10:33:38.390Z,19168.00
2018-03-28T10:34:35.223Z,19464.00
2018-03-28T10:35:35.469Z,18600.00
2018-03-28T10:36:36.836Z,17680.00
2018-03-28T10:37:35.304Z,17888.00
2018-03-28T10:38:34.957Z,19152.00
2018-03-28T10:39:34.926Z,20088.00
2018-03-28T10:40:35.009Z,20768.00
2018-03-28T10:41:35.624Z,21464.00
2018-03-28T10:42:35.310Z,22120.00
2018-03-28T10:43:36.454Z,22592.00
2018-03-28T10:44:35.537Z,23584.00
2018-03-28T10:45:35.987Z,25752.00
2018-03-28T10:46:34.918Z,27392.00
2018-03-28T10:47:35.028Z,28544.00
2018-03-28T10:48:56.382Z,30592.00
2018-03-28T10:49:57.701Z,29600.00
2018-03-28T10:50:56.657Z,28416.00
2018-03-28T10:51:56.478Z,28960.00
2018-03-28T10:52:56.821Z,30320.00
2018-03-28T10:53:56.744Z,28832.00
2018-03-28T10:54:56.877Z,29736.00
2018-03-28T10:55:57.274Z,32328.00
2018-03-28T10:56:57.278Z,32360.00
2018-03-28T10:57:57.145Z,34320.00
2018-03-28T10:58:57.112Z,33400.00
2018-03-28T10:59:56.978Z,31936.00
2018-03-28T11:00:57.063Z,30464.00
2018-03-28T11:01:57.342Z,26528.00
2018-03-28T11:02:57.401Z,24184.00
2018-03-28T11:04:18.803Z,24512.00
2018-03-28T11:05:18.923Z,23568.00
2018-03-28T11:06:18.954Z,19800.00
2018-03-28T11:07:19.092Z,18592.00
2018-03-28T11:08:19.177Z,20384.00
2018-03-28T11:09:19.071Z,22360.00
2018-03-28T11:10:18.920Z,24136.00
2018-03-28T11:11:18.784Z,26400.00
2018-03-28T11:12:40.805Z,31112.00
2018-03-28T11:13:42.080Z,32880.00
2018-03-28T11:15:01.556Z,33480.00
2018-03-28T11:16:01.689Z,31432.00
2018-03-28T11:18:57.792Z,21672.00
2018-03-28T11:19:57.628Z,20408.00
2018-03-28T11:21:40.379Z,20064.00
2018-03-28T11:22:40.030Z,20712.00
2018-03-28T11:23:41.273Z,18200.00
2018-03-28T11:24:40.335Z,15916.00
2018-03-28T11:25:40.126Z,15483.00
2018-03-28T11:27:02.450Z,21472.00
2018-03-28T11:28:16.099Z,27360.00
2018-03-28T11:29:03.160Z,31904.00
2018-03-28T11:30:03.042Z,31608.00
2018-03-28T11:31:02.864Z,30936.00
2018-03-28T11:32:02.557Z,29744.00
2018-03-28T11:33:03.504Z,27600.00
2018-03-28T11:34:03.488Z,24752.00
2018-03-28T11:35:03.309Z,21376.00
2018-03-28T11:36:02.982Z,18968.00
2018-03-28T11:37:43.878Z,17504.00
2018-03-28T11:38:44.975Z,17640.00
2018-03-28T11:39:44.928Z,18016.00
2018-03-28T11:40:44.870Z,17840.00
2018-03-28T11:41:44.900Z,16920.00
2018-03-28T11:42:44.676Z,16411.00
2018-03-28T11:43:44.752Z,16872.00
2018-03-28T11:44:44.639Z,16944.00
2018-03-28T11:45:44.829Z,16370.00
2018-03-28T11:47:07.130Z,16233.00
2018-03-28T11:48:07.244Z,15564.00
2018-03-28T11:49:07.186Z,14994.00
2018-03-28T11:50:07.184Z,15318.00
2018-03-28T11:51:52.082Z,16992.00
2018-03-28T11:52:53.095Z,17944.00
2018-03-28T11:54:14.867Z,18664.00
2018-03-28T11:55:14.665Z,19328.00
2018-03-28T11:56:15.077Z,19656.00
2018-03-28T11:57:14.319Z,19504.00
2018-03-28T11:58:56.170Z,18760.00
2018-03-28T11:59:57.261Z,18272.00
2018-03-28T12:00:56.038Z,17792.00
2018-03-28T12:01:57.102Z,17352.00
2018-03-28T12:02:55.992Z,16952.00
2018-03-28T12:03:56.842Z,16636.00
2018-03-28T12:04:56.725Z,16576.00
2018-03-28T12:06:17.526Z,16497.00
2018-03-28T12:07:18.662Z,16282.00
2018-03-28T12:08:18.340Z,16170.00
2018-03-28T12:09:18.923Z,16213.00
2018-03-28T12:10:39.650Z,16017.00
2018-03-28T12:11:40.858Z,15840.00
2018-03-28T12:12:40.978Z,15732.00
2018-03-28T12:13:39.802Z,15645.00
2018-03-28T12:14:40.813Z,15659.00
2018-03-28T12:15:39.628Z,15756.00
2018-03-28T12:16:40.389Z,15665.00
2018-03-28T12:18:01.844Z,15634.00
2018-03-28T12:19:01.653Z,15727.00
2018-03-28T12:20:02.346Z,15769.00
2018-03-28T12:21:23.546Z,15628.00
2018-03-28T12:22:25.004Z,15634.00
2018-03-28T12:23:24.237Z,15597.00
2018-03-28T12:24:24.026Z,15615.00
2018-03-28T12:25:23.680Z,15540.00
2018-03-28T12:26:24.683Z,15237.00
2018-03-28T12:27:24.470Z,14671.00
2018-03-28T12:28:24.884Z,14070.00
2018-03-28T12:29:23.712Z,13657.00
2018-03-28T12:30:24.994Z,13458.00
2018-03-28T12:31:24.247Z,13235.00
2018-03-28T12:32:46.188Z,12805.00
2018-03-28T12:33:45.741Z,12544.00
2018-03-28T12:34:47.538Z,12544.00
2018-03-28T12:35:47.077Z,12800.00
2018-03-28T12:37:07.781Z,13134.00
2018-03-28T12:38:07.601Z,13177.00
2018-03-28T12:39:29.743Z,13152.00
2018-03-28T12:40:29.396Z,13200.00
2018-03-28T12:41:30.704Z,13436.00
2018-03-28T12:42:29.874Z,13747.00
2018-03-28T12:43:30.097Z,14044.00
2018-03-28T12:44:30.114Z,14237.00
2018-03-28T12:45:30.136Z,14236.00
2018-03-28T12:46:30.238Z,14125.00
2018-03-28T12:47:30.740Z,13952.00
2018-03-28T12:48:29.996Z,13764.00
2018-03-28T12:49:30.039Z,13654.00
2018-03-28T12:50:29.996Z,13685.00
2018-03-28T12:51:30.390Z,13801.00
2018-03-28T12:52:51.542Z,13912.00
2018-03-28T12:54:14.133Z,13931.00
2018-03-28T12:55:14.145Z,13946.00
2018-03-28T12:56:14.324Z,13936.00
2018-03-28T12:57:14.595Z,13888.00
2018-03-28T12:58:14.680Z,13839.00
2018-03-28T12:59:57.159Z,13860.00
2018-03-28T13:00:57.320Z,13939.00
2018-03-28T13:01:57.588Z,14009.00
2018-03-28T13:02:57.808Z,14011.00
2018-03-28T13:04:18.607Z,13975.00
2018-03-28T13:05:41.584Z,13712.00
2018-03-28T13:06:42.802Z,13402.00
2018-03-28T13:08:02.781Z,13072.00
2018-03-28T13:09:04.259Z,12855.00
2018-03-28T13:10:02.950Z,12679.00
2018-03-28T13:11:03.856Z,12529.00
2018-03-28T13:12:04.182Z,12408.00
2018-03-28T13:13:02.965Z,12366.00
2018-03-28T13:14:03.215Z,12387.00
2018-03-28T13:15:03.584Z,12501.00
2018-03-28T13:16:04.046Z,12721.00
2018-03-28T13:17:03.072Z,12946.00
2018-03-28T13:18:03.256Z,13036.00
2018-03-28T13:19:46.373Z,13018.00
2018-03-28T13:20:46.206Z,13045.00
2018-03-28T13:21:46.616Z,12941.00
2018-03-28T13:23:07.299Z,12850.00
2018-03-28T13:24:08.745Z,12816.00
2018-03-28T13:25:07.749Z,12722.00
2018-03-28T13:26:07.930Z,12651.00
2018-03-28T13:27:07.877Z,12557.00
2018-03-28T13:28:07.818Z,12440.00
2018-03-28T13:29:29.001Z,12364.00
2018-03-28T13:30:29.732Z,12244.00
2018-03-28T13:31:30.112Z,12048.00
2018-03-28T13:32:29.019Z,11780.00
2018-03-28T13:33:28.823Z,11599.00